createdAt,value
2023-03-28T00:02:12.721Z,10.08
2023-03-28T00:05:18.854Z,10.06
2023-03-28T00:08:25.683Z,10.02
2023-03-28T00:11:35.213Z,10.00
2023-03-28T00:14:43.955Z,9.95
2023-03-28T00:17:49.960Z,9.93
2023-03-28T00:20:56.971Z,9.92
2023-03-28T00:24:07.913Z,9.87
2023-03-28T00:27:14.334Z,9.84
2023-03-28T00:30:20.973Z,9.80
2023-03-28T00:33:28.088Z,9.76
2023-03-28T00:36:36.592Z,9.71
2023-03-28T00:39:43.577Z,9.68
2023-03-28T00:42:50.497Z,9.64
2023-03-28T00:46:08.620Z,9.57
2023-03-28T00:49:09.040Z,9.49
2023-03-28T00:52:17.052Z,9.45
2023-03-28T00:55:26.439Z,9.39
2023-03-28T00:58:36.120Z,9.34
2023-03-28T01:01:41.475Z,9.32
2023-03-28T01:04:56.136Z,9.30
2023-03-28T01:08:06.369Z,9.29
2023-03-28T01:11:13.640Z,9.28
2023-03-28T01:14:20.557Z,9.29
2023-03-28T01:17:27.923Z,9.27
2023-03-28T01:20:57.941Z,9.28
2023-03-28T01:24:34.130Z,9.29
2023-03-28T01:27:47.631Z,9.28
2023-03-28T01:31:28.312Z,9.27
2023-03-28T01:35:08.737Z,9.29
2023-03-28T01:38:25.723Z,9.27
2023-03-28T01:41:45.129Z,9.28
2023-03-28T01:45:11.281Z,9.29
2023-03-28T01:48:33.518Z,9.31
2023-03-28T01:51:59.641Z,9.32
2023-03-28T01:55:13.699Z,9.32
2023-03-28T01:58:24.229Z,9.32
2023-03-28T02:01:40.614Z,9.33
2023-03-28T02:04:46.828Z,9.33
2023-03-28T02:07:55.885Z,9.36
2023-03-28T02:11:05.736Z,9.40
2023-03-28T02:14:24.448Z,9.41
2023-03-28T02:17:34.186Z,9.41
2023-03-28T02:20:45.956Z,9.43
2023-03-28T02:24:09.663Z,9.44
2023-03-28T02:27:23.258Z,9.43
2023-03-28T02:30:31.292Z,9.41
2023-03-28T02:33:50.358Z,9.40
2023-03-28T02:37:24.735Z,9.40
2023-03-28T02:41:03.871Z,9.40
2023-03-28T02:45:01.761Z,9.39
2023-03-28T02:48:32.680Z,9.37
2023-03-28T02:51:52.193Z,9.37
2023-03-28T02:55:10.907Z,9.38
2023-03-28T02:58:45.323Z,9.39
2023-03-28T03:01:51.669Z,9.34
2023-03-28T03:05:01.276Z,9.33
2023-03-28T03:08:07.768Z,9.34
2023-03-28T03:11:14.847Z,9.35
2023-03-28T03:14:21.614Z,9.34
2023-03-28T03:17:34.207Z,9.28
2023-03-28T03:20:43.145Z,9.21
2023-03-28T03:23:50.962Z,9.20
2023-03-28T03:26:58.166Z,9.20
2023-03-28T03:30:04.378Z,9.16
2023-03-28T03:33:31.949Z,9.10
2023-03-28T03:36:38.433Z,9.09
2023-03-28T03:39:38.739Z,9.09
2023-03-28T03:42:31.782Z,9.10
2023-03-28T03:45:38.871Z,9.10
2023-03-28T03:48:49.256Z,9.10
2023-03-28T03:51:53.055Z,9.09
2023-03-28T03:54:59.077Z,9.08
2023-03-28T03:58:07.200Z,9.03
2023-03-28T04:01:16.799Z,9.00
2023-03-28T04:04:23.321Z,8.93
2023-03-28T04:07:33.404Z,8.89
2023-03-28T04:10:41.525Z,8.89
2023-03-28T04:13:47.216Z,8.91
2023-03-28T04:16:57.092Z,8.88
2023-03-28T04:20:04.837Z,8.85
2023-03-28T04:23:14.869Z,8.85
2023-03-28T04:26:23.455Z,8.86
2023-03-28T04:29:35.748Z,8.89
2023-03-28T04:32:45.049Z,8.94
2023-03-28T04:35:53.468Z,8.96
2023-03-28T04:38:59.856Z,8.99
2023-03-28T04:42:26.051Z,9.02
2023-03-28T04:45:39.805Z,9.03
2023-03-28T04:48:49.022Z,9.06
2023-03-28T04:51:59.580Z,9.11
2023-03-28T04:55:07.990Z,9.16
2023-03-28T04:58:15.818Z,9.21
2023-03-28T05:01:23.509Z,9.27
2023-03-28T05:04:33.300Z,9.30
2023-03-28T05:07:39.280Z,9.31
2023-03-28T05:10:44.342Z,9.38
2023-03-28T05:13:58.536Z,9.45
2023-03-28T05:17:06.930Z,9.48
2023-03-28T05:20:23.781Z,9.54
2023-03-28T05:23:28.749Z,9.58
2023-03-28T05:26:35.629Z,9.58
2023-03-28T05:29:42.844Z,9.62
2023-03-28T05:32:49.519Z,9.62
2023-03-28T05:35:55.436Z,9.63
2023-03-28T05:39:04.260Z,9.68
2023-03-28T05:42:11.475Z,9.80
2023-03-28T05:45:20.551Z,9.90
2023-03-28T05:48:39.766Z,10.05
2023-03-28T05:51:44.738Z,10.24
2023-03-28T05:54:51.643Z,10.38
2023-03-28T05:57:51.771Z,10.45
2023-03-28T06:01:00.059Z,10.49
2023-03-28T06:04:07.318Z,10.54
2023-03-28T06:07:14.690Z,10.61
2023-03-28T06:10:22.773Z,10.66
2023-03-28T06:13:33.711Z,10.69
2023-03-28T06:16:38.809Z,10.69
2023-03-28T06:19:44.748Z,10.73
2023-03-28T06:22:50.111Z,10.79
2023-03-28T06:25:50.477Z,10.87
2023-03-28T06:28:37.768Z,10.91
2023-03-28T06:31:36.178Z,10.93
2023-03-28T06:34:31.604Z,10.89
2023-03-28T06:37:38.157Z,10.90
2023-03-28T06:40:47.034Z,10.96
2023-03-28T06:43:53.613Z,11.03
2023-03-28T06:47:17.065Z,11.20
2023-03-28T06:50:23.109Z,11.39
2023-03-28T06:53:33.537Z,11.53
2023-03-28T06:56:40.816Z,11.68
2023-03-28T06:59:45.716Z,11.80
2023-03-28T07:02:55.006Z,11.91
2023-03-28T07:06:01.531Z,11.97
2023-03-28T07:09:06.956Z,12.12
2023-03-28T07:12:16.812Z,12.21
2023-03-28T07:15:24.394Z,12.40
2023-03-28T07:18:29.910Z,12.58
2023-03-28T07:21:36.214Z,12.69
2023-03-28T07:24:41.084Z,12.79
2023-03-28T07:27:48.060Z,12.93
2023-03-28T07:30:54.182Z,13.02
2023-03-28T07:34:00.839Z,13.10
2023-03-28T07:37:07.399Z,13.19
2023-03-28T07:40:19.626Z,13.30
2023-03-28T07:43:25.028Z,13.46
2023-03-28T07:46:32.862Z,13.66
2023-03-28T07:49:39.116Z,13.69
2023-03-28T07:52:47.965Z,13.73
2023-03-28T07:55:56.271Z,13.79
2023-03-28T07:59:04.195Z,13.96
2023-03-28T08:02:10.995Z,14.03
2023-03-28T08:05:17.665Z,13.99
2023-03-28T08:08:25.005Z,13.95
2023-03-28T08:11:44.133Z,13.92
2023-03-28T08:14:49.942Z,13.87
2023-03-28T08:17:56.136Z,13.88
2023-03-28T08:21:04.045Z,13.95
2023-03-28T08:24:10.474Z,13.93
2023-03-28T08:27:21.860Z,13.96
2023-03-28T08:30:29.300Z,14.13
2023-03-28T08:33:37.316Z,14.35
2023-03-28T08:36:45.131Z,14.55
2023-03-28T08:39:54.546Z,14.72
2023-03-28T08:43:27.213Z,14.77
2023-03-28T08:46:36.596Z,14.70
2023-03-28T08:49:43.615Z,14.61
2023-03-28T08:52:50.136Z,14.49
2023-03-28T08:56:04.317Z,14.25
2023-03-28T08:59:23.492Z,14.00
2023-03-28T09:02:36.280Z,13.79
2023-03-28T09:06:08.566Z,13.54
2023-03-28T09:09:34.278Z,13.44
2023-03-28T09:12:56.232Z,13.38
2023-03-28T09:16:37.758Z,13.25
2023-03-28T09:20:23.242Z,13.18
2023-03-28T09:23:56.956Z,13.07
2023-03-28T09:27:32.858Z,12.92
2023-03-28T09:30:46.956Z,12.68
2023-03-28T09:33:56.113Z,12.56
2023-03-28T09:37:15.994Z,12.49
2023-03-28T09:40:42.524Z,12.43
2023-03-28T09:44:01.961Z,12.36
2023-03-28T09:47:27.839Z,12.28
2023-03-28T09:50:35.655Z,12.18
2023-03-28T09:53:51.180Z,12.09
2023-03-28T09:56:59.700Z,11.99
2023-03-28T10:00:22.266Z,11.89
2023-03-28T10:03:41.415Z,11.83
2023-03-28T10:06:48.516Z,11.85
2023-03-28T10:10:10.874Z,11.89
2023-03-28T10:13:19.436Z,11.86
2023-03-28T10:16:30.068Z,11.68
2023-03-28T10:19:52.506Z,11.64
2023-03-28T10:23:04.574Z,11.54
2023-03-28T10:26:09.893Z,11.48
2023-03-28T10:29:17.806Z,11.46
2023-03-28T10:32:29.040Z,11.35
2023-03-28T10:35:43.392Z,11.28
2023-03-28T10:39:01.151Z,11.25
2023-03-28T10:42:14.047Z,11.21
2023-03-28T10:45:24.076Z,11.24
2023-03-28T10:48:36.152Z,11.30
2023-03-28T10:51:41.838Z,11.31
2023-03-28T10:54:52.492Z,11.32
2023-03-28T10:58:34.610Z,11.35
2023-03-28T11:02:04.071Z,11.39
2023-03-28T11:05:38.756Z,11.40
2023-03-28T11:09:04.975Z,11.36
2023-03-28T11:12:54.227Z,11.29
2023-03-28T11:16:14.875Z,11.28
2023-03-28T11:20:09.133Z,11.30
2023-03-28T11:23:48.086Z,11.32
2023-03-28T11:27:25.507Z,11.33
2023-03-28T11:30:47.428Z,11.38
2023-03-28T11:34:25.535Z,11.36
2023-03-28T11:37:40.969Z,11.34
2023-03-28T11:41:14.882Z,11.31
2023-03-28T11:44:43.338Z,11.25
2023-03-28T11:48:01.760Z,11.16
2023-03-28T11:51:29.209Z,11.10
2023-03-28T11:54:43.041Z,11.02
2023-03-28T11:58:12.474Z,10.99
2023-03-28T12:01:28.778Z,10.96
2023-03-28T12:05:01.266Z,10.91
2023-03-28T12:08:31.932Z,10.90
2023-03-28T12:11:48.667Z,10.89
2023-03-28T12:15:18.007Z,10.89
2023-03-28T12:19:00.264Z,10.87
2023-03-28T12:22:20.923Z,10.87
2023-03-28T12:25:51.166Z,10.87
2023-03-28T12:29:02.078Z,10.87
2023-03-28T12:32:15.833Z,10.82
2023-03-28T12:35:38.475Z,10.82
2023-03-28T12:38:55.840Z,10.82
2023-03-28T12:42:03.640Z,10.88
2023-03-28T12:45:22.623Z,10.91
2023-03-28T12:48:33.576Z,10.91
2023-03-28T12:51:54.602Z,10.94
2023-03-28T12:55:15.815Z,10.97
2023-03-28T12:58:43.178Z,11.01
2023-03-28T13:02:04.451Z,11.04
2023-03-28T13:05:41.082Z,11.04
2023-03-28T13:09:24.741Z,10.99
2023-03-28T13:13:11.312Z,10.91
2023-03-28T13:16:21.482Z,10.86
2023-03-28T13:19:29.068Z,10.81
2023-03-28T13:22:47.344Z,10.82
2023-03-28T13:25:54.926Z,10.82
2023-03-28T13:29:03.764Z,10.76
2023-03-28T13:32:10.077Z,10.71
2023-03-28T13:35:20.602Z,10.63
2023-03-28T13:38:51.173Z,10.58
2023-03-28T13:42:05.944Z,10.50
2023-03-28T13:45:29.871Z,10.45
2023-03-28T13:48:52.572Z,10.38
2023-03-28T13:52:06.632Z,10.34
2023-03-28T13:55:24.316Z,10.35
2023-03-28T13:58:30.897Z,10.36
2023-03-28T14:01:40.696Z,10.36
2023-03-28T14:04:48.537Z,10.39
2023-03-28T14:07:56.129Z,10.40
2023-03-28T14:11:04.450Z,10.37
2023-03-28T14:14:54.270Z,10.38
2023-03-28T14:18:01.214Z,10.37
2023-03-28T14:21:12.308Z,10.35
2023-03-28T14:24:20.787Z,10.34
2023-03-28T14:27:30.976Z,10.34
2023-03-28T14:30:43.122Z,10.33
2023-03-28T14:33:52.070Z,10.33
2023-03-28T14:37:22.044Z,10.33
2023-03-28T14:40:41.659Z,10.30
2023-03-28T14:43:47.354Z,10.28
2023-03-28T14:46:55.061Z,10.26
2023-03-28T14:50:01.053Z,10.25
2023-03-28T14:53:07.810Z,10.23
2023-03-28T14:56:18.098Z,10.20
2023-03-28T14:59:27.679Z,10.17
2023-03-28T15:02:49.000Z,10.13
2023-03-28T15:05:56.769Z,10.11
2023-03-28T15:09:03.752Z,10.08
2023-03-28T15:12:11.210Z,10.05
2023-03-28T15:15:17.433Z,9.99
2023-03-28T15:18:31.381Z,9.98
2023-03-28T15:21:36.202Z,9.97
2023-03-28T15:24:42.631Z,9.96
2023-03-28T15:27:48.875Z,9.96
2023-03-28T15:31:00.106Z,9.98
2023-03-28T15:34:06.861Z,9.98
2023-03-28T15:37:17.061Z,10.00
2023-03-28T15:40:40.303Z,10.00
2023-03-28T15:44:10.494Z,10.00
2023-03-28T15:47:26.773Z,9.98
2023-03-28T15:50:42.052Z,9.94
2023-03-28T15:53:48.185Z,9.93
2023-03-28T15:57:01.155Z,9.90
2023-03-28T16:00:07.672Z,9.88
2023-03-28T16:03:41.702Z,9.87
2023-03-28T16:06:49.136Z,9.86
2023-03-28T16:09:58.016Z,9.85
2023-03-28T16:13:06.291Z,9.82
2023-03-28T16:16:13.585Z,9.84
2023-03-28T16:19:38.511Z,9.83
2023-03-28T16:22:45.542Z,9.82
2023-03-28T16:25:52.258Z,9.82
2023-03-28T16:28:58.530Z,9.83
2023-03-28T16:32:05.333Z,9.83
2023-03-28T16:35:11.773Z,9.83
2023-03-28T16:38:19.101Z,9.82
2023-03-28T16:41:26.798Z,9.81
2023-03-28T16:44:33.140Z,9.77
2023-03-28T16:47:39.197Z,9.73
2023-03-28T16:50:46.785Z,9.69
2023-03-28T16:53:52.610Z,9.66
2023-03-28T16:57:01.789Z,9.64
2023-03-28T17:00:07.944Z,9.63
2023-03-28T17:03:13.738Z,9.58
2023-03-28T17:06:22.190Z,9.55
2023-03-28T17:09:29.187Z,9.49
2023-03-28T17:12:36.335Z,9.41
2023-03-28T17:15:43.830Z,9.32
2023-03-28T17:18:50.680Z,9.30
2023-03-28T17:21:57.804Z,9.21
2023-03-28T17:25:04.215Z,9.13
2023-03-28T17:28:11.043Z,9.08
2023-03-28T17:31:21.894Z,9.07
2023-03-28T17:34:28.921Z,9.00
2023-03-28T17:37:34.588Z,8.98
2023-03-28T17:40:40.028Z,8.96
2023-03-28T17:43:47.831Z,8.96
2023-03-28T17:46:54.456Z,8.93
2023-03-28T17:50:01.775Z,8.90
2023-03-28T17:53:08.327Z,8.87
2023-03-28T17:56:16.881Z,8.83
2023-03-28T17:59:24.855Z,8.82
2023-03-28T18:02:32.264Z,8.76
2023-03-28T18:05:40.459Z,8.71
2023-03-28T18:08:49.406Z,8.68
2023-03-28T18:11:56.845Z,8.65
2023-03-28T18:15:03.672Z,8.60
2023-03-28T18:18:10.413Z,8.57
2023-03-28T18:21:19.012Z,8.51
2023-03-28T18:24:27.604Z,8.46
2023-03-28T18:27:34.774Z,8.43
2023-03-28T18:30:42.361Z,8.42
2023-03-28T18:33:51.655Z,8.37
2023-03-28T18:37:01.998Z,8.37
2023-03-28T18:40:08.626Z,8.34
2023-03-28T18:43:17.659Z,8.28
2023-03-28T18:46:25.637Z,8.23
2023-03-28T18:49:32.884Z,8.18
2023-03-28T18:52:39.728Z,8.11
2023-03-28T18:55:47.616Z,8.02
2023-03-28T18:58:56.202Z,7.97
2023-03-28T19:02:02.166Z,7.92
2023-03-28T19:05:09.157Z,7.93
2023-03-28T19:08:16.554Z,7.92
2023-03-28T19:11:26.491Z,7.89
2023-03-28T19:14:35.737Z,7.87
2023-03-28T19:17:42.302Z,7.83
2023-03-28T19:20:48.479Z,7.78
2023-03-28T19:23:54.296Z,7.64
2023-03-28T19:27:05.181Z,7.45
2023-03-28T19:30:16.580Z,7.25
2023-03-28T19:33:26.650Z,7.07
2023-03-28T19:36:34.001Z,6.91
2023-03-28T19:39:41.338Z,6.75
2023-03-28T19:42:47.933Z,6.64
2023-03-28T19:45:55.291Z,6.52
2023-03-28T19:49:04.016Z,6.40
2023-03-28T19:52:11.220Z,6.31
2023-03-28T19:55:17.445Z,6.22
2023-03-28T19:58:23.065Z,6.06
2023-03-28T20:01:30.086Z,5.91
2023-03-28T20:04:38.766Z,5.81
2023-03-28T20:07:45.331Z,5.76
2023-03-28T20:10:57.609Z,5.73
2023-03-28T20:14:05.040Z,5.67
2023-03-28T20:17:11.927Z,5.66
2023-03-28T20:20:20.067Z,5.58
2023-03-28T20:23:29.420Z,5.51
2023-03-28T20:26:37.035Z,5.47
2023-03-28T20:29:42.798Z,5.41
2023-03-28T20:32:50.653Z,5.38
2023-03-28T20:35:56.535Z,5.36
2023-03-28T20:39:03.224Z,5.34
2023-03-28T20:42:10.279Z,5.33
2023-03-28T20:45:18.701Z,5.35
2023-03-28T20:48:25.796Z,5.35
2023-03-28T20:51:39.167Z,5.34
2023-03-28T20:54:48.188Z,5.31
2023-03-28T20:57:55.709Z,5.27
2023-03-28T21:01:03.921Z,5.23
2023-03-28T21:04:12.309Z,5.24
2023-03-28T21:07:21.717Z,5.25
2023-03-28T21:10:27.922Z,5.27
2023-03-28T21:13:34.735Z,5.23
2023-03-28T21:16:45.768Z,5.22
2023-03-28T21:19:51.037Z,5.20
2023-03-28T21:22:57.280Z,5.17
2023-03-28T21:26:05.392Z,5.13
2023-03-28T21:29:12.631Z,5.04
2023-03-28T21:32:18.886Z,4.89
2023-03-28T21:35:27.539Z,4.81
2023-03-28T21:38:33.738Z,4.74
2023-03-28T21:41:38.842Z,4.69
2023-03-28T21:44:44.641Z,4.63
2023-03-28T21:47:51.390Z,4.56
2023-03-28T21:51:07.207Z,4.50
2023-03-28T21:54:13.218Z,4.44
2023-03-28T21:57:21.396Z,4.44
2023-03-28T22:00:31.351Z,4.44
2023-03-28T22:03:42.798Z,4.39
2023-03-28T22:06:48.176Z,4.37
2023-03-28T22:09:56.772Z,4.32
2023-03-28T22:13:01.817Z,4.25
2023-03-28T22:16:07.857Z,4.15
2023-03-28T22:19:15.887Z,4.08
2023-03-28T22:22:23.681Z,3.99
2023-03-28T22:25:29.773Z,3.89
2023-03-28T22:28:35.872Z,3.80
2023-03-28T22:31:41.403Z,3.70
2023-03-28T22:34:47.917Z,3.68
2023-03-28T22:37:54.257Z,3.70
2023-03-28T22:41:00.315Z,3.75
2023-03-28T22:44:06.321Z,3.80
2023-03-28T22:47:12.482Z,3.74
2023-03-28T22:50:20.997Z,3.63
2023-03-28T22:53:29.137Z,3.55
2023-03-28T22:56:35.408Z,3.50
2023-03-28T22:59:43.492Z,3.46
2023-03-28T23:02:50.476Z,3.47
2023-03-28T23:05:58.389Z,3.45
2023-03-28T23:09:06.041Z,3.43
2023-03-28T23:12:13.684Z,3.42
2023-03-28T23:15:20.061Z,3.44
2023-03-28T23:18:27.754Z,3.51
2023-03-28T23:21:35.229Z,3.48
2023-03-28T23:24:45.212Z,3.43
2023-03-28T23:27:53.896Z,3.40
2023-03-28T23:31:00.344Z,3.36
2023-03-28T23:34:06.804Z,3.31
2023-03-28T23:37:12.531Z,3.30
2023-03-28T23:40:21.940Z,3.28
2023-03-28T23:43:40.833Z,3.26
2023-03-28T23:46:47.145Z,3.23
2023-03-28T23:49:53.878Z,3.23
2023-03-28T23:53:00.165Z,3.21
2023-03-28T23:56:05.499Z,3.15
2023-03-28T23:59:10.918Z,3.11
